Terminal Aerodrome Forecast
Issued by NWS Pendleton, OR

Home | Current Version | Previous Version | Text Only | Print | Product List | Glossary On
Versions: 1 2 3 4 5 6 7 8 9 10 11 12 13 14 15
000
FTUS46 KPDT 012320
TAFPDT
TAF
KPDT 012320Z 0200/0224 29011KT P6SM SCT250
     FM020300 26010KT P6SM SCT070 BKN200
     FM020800 24010KT P6SM BKN060 BKN150
     FM021500 25011KT P6SM VCSH BKN050
     FM022000 26014G24KT P6SM SCT060=

USA.gov is the U.S. government's official web portal to all federal, state and local government web resources and services.